Aviation Digital Data Service (ADDS)

Output produced by METARs form (1444 UTC 20 September 2017)
found at http://www.aviationweather.gov/adds/metars/
 
RCTP 201430Z 33003KT 8000 FEW020 SCT120 28/27 Q1009 NOSIG RMK A2980
TAF RCTP 201100Z 2012/2118 01005KT 9999 FEW020 
     TEMPO 2017/2023 23005KT 4000 BR SCT005 BKN008 BKN020 
     BECMG 2023/2101 33008KT 
     BECMG 2107/2109 02005KT 
     TEMPO 2115/2118 3500 BR SCT006 BKN011 BKN025
       
RCMQ 201400Z 14002KT 9999 FEW012 BKN060 27/21 Q1010 NOSIG RMK A2984
TAF RCMQ 201100Z 2012/2112 36005KT 9999 FEW012 SCT060 BKN100 TX32/2105Z TN25/2020Z 
     BECMG 2014/2017 02004KT 8000 FEW012 BKN060 
     BECMG 2019/2022 6000 FEW012 SCT060 
     BECMG 2101/2104 34006KT 9999 
     BECMG 2106/2109 FEW012 BKN060
       
RCFN 201200Z 30003KT 9999 VCTS VCSH FEW015 FEW018CB SCT032 BKN100 28/26 Q1011 TEMPO 5000 SHRA RMK TS SE MOV N A2987
TAF RCFN 201100Z 2012/2112 34005KT 9999 FEW020 BKN032 
     BECMG 2101/2103 13005KT 
     TEMPO 2108/2112 08008KT 5000 SHRA FEW008 FEW010CB BKN020 BKN040
       
RCKH 201439Z 14005KT 100V240 9000 FEW016 SCT035 BKN070 29/23 Q1010 NOSIG RMK A2985
TAF RCKH 201100Z 2012/2118 29005KT 9999 FEW020 BKN032 
     TEMPO 2012/2016 4000 SHRA FEW010 FEW012CB BKN018 BKN035 
     TEMPO 2019/2024 06005KT 4000 BR 
     TEMPO 2104/2110 26011KT 
     BECMG 2112/2114 24005KT
       
RCSS 201430Z 09004KT 9999 FEW025 BKN180 29/25 Q1009 NOSIG RMK A2980
TAF RCSS 201100Z 2012/2112 08005KT 9999 FEW025 
     BECMG 2018/2020 28005KT 
     TEMPO 2107/2112 26010KT 5000 SHRA FEW010 FEW012CB BKN022 BKN040
       
RCNN 201400Z 06005KT 9999 VCSH FEW012 BKN050 27/19 Q1009 RMK A2982 VCSH SE
TAF RCNN 201100Z 2012/2112 34006KT 9999 FEW012 BKN060 TX32/2106Z TN24/2021Z 
     BECMG 2013/2016 34004KT 
     BECMG 2018/2021 7000 FEW012 BKN050 
     BECMG 2100/2103 36006KT FEW012 BKN100 
     TEMPO 2108/2111 8000 RA FEW012 BKN050